sensor_id;sensor_type;location;lat;lon;timestamp;pressure;altitude;pressure_sealevel;temperature;humidity
54936;BME280;40838;50.676;7.838;2022-10-30T00:00:47;98631.66;;;15.83;100.00
54936;BME280;40838;50.676;7.838;2022-10-30T00:03:16;98636.97;;;15.88;100.00
54936;BME280;40838;50.676;7.838;2022-10-30T00:05:48;98634.84;;;15.90;100.00
54936;BME280;40838;50.676;7.838;2022-10-30T00:08:18;98633.25;;;15.79;100.00
54936;BME280;40838;50.676;7.838;2022-10-30T00:10:45;98635.31;;;15.67;100.00
54936;BME280;40838;50.676;7.838;2022-10-30T00:13:15;98638.00;;;15.67;100.00
54936;BME280;40838;50.676;7.838;2022-10-30T00:15:46;98641.72;;;15.65;100.00
54936;BME280;40838;50.676;7.838;2022-10-30T00:18:13;98635.91;;;15.69;100.00
54936;BME280;40838;50.676;7.838;2022-10-30T00:20:42;98632.19;;;15.90;100.00
54936;BME280;40838;50.676;7.838;2022-10-30T00:23:08;98623.16;;;15.81;100.00
54936;BME280;40838;50.676;7.838;2022-10-30T00:25:35;98627.41;;;15.72;100.00
54936;BME280;40838;50.676;7.838;2022-10-30T00:28:03;98616.22;;;15.70;100.00
54936;BME280;40838;50.676;7.838;2022-10-30T00:30:30;98618.31;;;15.68;100.00
54936;BME280;40838;50.676;7.838;2022-10-30T00:32:58;98617.28;;;15.69;100.00
54936;BME280;40838;50.676;7.838;2022-10-30T00:35:29;98613.03;;;15.73;100.00
54936;BME280;40838;50.676;7.838;2022-10-30T00:37:58;98613.56;;;15.70;100.00
54936;BME280;40838;50.676;7.838;2022-10-30T00:40:25;98610.34;;;15.73;100.00
54936;BME280;40838;50.676;7.838;2022-10-30T00:42:53;98606.66;;;15.84;100.00
54936;BME280;40838;50.676;7.838;2022-10-30T00:45:20;98611.44;;;15.92;100.00
54936;BME280;40838;50.676;7.838;2022-10-30T00:47:51;98607.72;;;15.83;100.00
54936;BME280;40838;50.676;7.838;2022-10-30T00:50:21;98595.22;;;15.89;100.00
54936;BME280;40838;50.676;7.838;2022-10-30T00:52:53;98592.81;;;15.92;100.00
54936;BME280;40838;50.676;7.838;2022-10-30T00:55:26;98593.09;;;16.06;100.00
54936;BME280;40838;50.676;7.838;2022-10-30T00:57:56;98596.56;;;16.06;100.00
54936;BME280;40838;50.676;7.838;2022-10-30T01:00:26;98595.75;;;16.16;100.00
54936;BME280;40838;50.676;7.838;2022-10-30T01:02:55;98587.75;;;16.11;100.00
54936;BME280;40838;50.676;7.838;2022-10-30T01:05:26;98608.53;;;15.99;100.00
54936;BME280;40838;50.676;7.838;2022-10-30T01:07:54;98597.88;;;15.83;100.00
54936;BME280;40838;50.676;7.838;2022-10-30T01:10:29;98600.53;;;15.78;100.00
54936;BME280;40838;50.676;7.838;2022-10-30T01:12:57;98606.38;;;15.75;100.00
54936;BME280;40838;50.676;7.838;2022-10-30T01:15:29;98606.91;;;15.87;100.00
54936;BME280;40838;50.676;7.838;2022-10-30T01:18:13;98606.13;;;15.92;100.00
54936;BME280;40838;50.676;7.838;2022-10-30T01:21:03;98604.28;;;15.82;100.00
54936;BME280;40838;50.676;7.838;2022-10-30T01:23:38;98605.31;;;15.76;100.00
54936;BME280;40838;50.676;7.838;2022-10-30T01:26:14;98610.34;;;15.68;100.00
54936;BME280;40838;50.676;7.838;2022-10-30T01:29:02;98612.16;;;15.52;100.00
54936;BME280;40838;50.676;7.838;2022-10-30T01:31:43;98619.88;;;15.58;100.00
54936;BME280;40838;50.676;7.838;2022-10-30T01:34:19;98628.66;;;15.49;100.00
54936;BME280;40838;50.676;7.838;2022-10-30T01:36:50;98613.78;;;15.63;100.00
54936;BME280;40838;50.676;7.838;2022-10-30T01:39:23;98613.56;;;15.70;100.00
54936;BME280;40838;50.676;7.838;2022-10-30T01:41:52;98608.72;;;15.67;100.00
54936;BME280;40838;50.676;7.838;2022-10-30T01:44:22;98618.31;;;15.62;100.00
54936;BME280;40838;50.676;7.838;2022-10-30T01:47:04;98609.75;;;15.45;100.00
54936;BME280;40838;50.676;7.838;2022-10-30T01:49:59;98608.97;;;15.50;100.00
54936;BME280;40838;50.676;7.838;2022-10-30T01:52:35;98616.97;;;15.55;100.00
54936;BME280;40838;50.676;7.838;2022-10-30T01:55:14;98616.19;;;15.59;100.00
54936;BME280;40838;50.676;7.838;2022-10-30T01:57:54;98617.19;;;15.43;100.00
54936;BME280;40838;50.676;7.838;2022-10-30T02:00:24;98617.44;;;15.36;100.00
54936;BME280;40838;50.676;7.838;2022-10-30T02:02:51;98609.75;;;15.40;100.00
54936;BME280;40838;50.676;7.838;2022-10-30T02:05:27;98605.47;;;15.44;100.00
54936;BME280;40838;50.676;7.838;2022-10-30T02:08:04;98608.66;;;15.41;100.00
54936;BME280;40838;50.676;7.838;2022-10-30T02:10:34;98603.63;;;15.39;100.00
54936;BME280;40838;50.676;7.838;2022-10-30T02:13:04;98596.97;;;15.37;100.00
54936;BME280;40838;50.676;7.838;2022-10-30T02:15:32;98600.16;;;15.44;100.00
54936;BME280;40838;50.676;7.838;2022-10-30T02:18:00;98592.47;;;15.42;100.00
54936;BME280;40838;50.676;7.838;2022-10-30T02:20:28;98581.31;;;15.51;100.00
54936;BME280;40838;50.676;7.838;2022-10-30T02:22:57;98594.56;;;15.30;100.00
54936;BME280;40838;50.676;7.838;2022-10-30T02:25:29;98588.16;;;15.26;100.00
54936;BME280;40838;50.676;7.838;2022-10-30T02:27:58;98590.81;;;15.16;100.00
54936;BME280;40838;50.676;7.838;2022-10-30T02:30:28;98588.91;;;15.11;100.00
54936;BME280;40838;50.676;7.838;2022-10-30T02:32:55;98590.25;;;15.04;100.00
54936;BME280;40838;50.676;7.838;2022-10-30T02:35:21;98589.69;;;15.02;100.00
54936;BME280;40838;50.676;7.838;2022-10-30T02:37:53;98579.59;;;15.04;100.00
54936;BME280;40838;50.676;7.838;2022-10-30T02:40:20;98572.94;;;15.06;100.00
54936;BME280;40838;50.676;7.838;2022-10-30T02:42:56;98572.44;;;15.14;100.00
54936;BME280;40838;50.676;7.838;2022-10-30T02:45:24;98568.44;;;15.02;100.00
54936;BME280;40838;50.676;7.838;2022-10-30T02:47:51;98570.81;;;14.98;100.00
54936;BME280;40838;50.676;7.838;2022-10-30T02:50:17;98573.72;;;14.96;100.00
54936;BME280;40838;50.676;7.838;2022-10-30T02:52:44;98565.50;;;14.98;100.00
54936;BME280;40838;50.676;7.838;2022-10-30T02:55:13;98570.28;;;15.06;100.00
54936;BME280;40838;50.676;7.838;2022-10-30T02:57:40;98578.50;;;15.00;100.00
54936;BME280;40838;50.676;7.838;2022-10-30T03:00:08;98570.25;;;14.91;100.00
54936;BME280;40838;50.676;7.838;2022-10-30T03:02:36;98570.81;;;14.98;100.00
54936;BME280;40838;50.676;7.838;2022-10-30T03:05:03;98578.25;;;15.06;100.00
54936;BME280;40838;50.676;7.838;2022-10-30T03:07:30;98562.94;;;15.34;100.00
54936;BME280;40838;50.676;7.838;2022-10-30T03:09:57;98569.56;;;15.31;100.00
54936;BME280;40838;50.676;7.838;2022-10-30T03:12:26;98571.69;;;15.24;100.00
54936;BME280;40838;50.676;7.838;2022-10-30T03:14:52;98572.72;;;15.18;100.00
54936;BME280;40838;50.676;7.838;2022-10-30T03:17:19;98571.66;;;15.14;100.00
54936;BME280;40838;50.676;7.838;2022-10-30T03:19:47;98579.59;;;15.04;100.00
54936;BME280;40838;50.676;7.838;2022-10-30T03:22:16;98578.56;;;15.15;100.00
54936;BME280;40838;50.676;7.838;2022-10-30T03:24:44;98574.03;;;15.05;100.00
54936;BME280;40838;50.676;7.838;2022-10-30T03:27:12;98576.91;;;14.93;100.00
54936;BME280;40838;50.676;7.838;2022-10-30T03:29:40;98576.06;;;14.88;100.00
54936;BME280;40838;50.676;7.838;2022-10-30T03:32:08;98572.59;;;14.82;100.00
54936;BME280;40838;50.676;7.838;2022-10-30T03:34:43;98581.53;;;14.61;100.00
54936;BME280;40838;50.676;7.838;2022-10-30T03:37:10;98578.91;;;14.66;100.00
54936;BME280;40838;50.676;7.838;2022-10-30T03:39:37;98574.72;;;14.85;100.00
54936;BME280;40838;50.676;7.838;2022-10-30T03:42:04;98580.81;;;14.76;100.00
54936;BME280;40838;50.676;7.838;2022-10-30T03:44:31;98573.13;;;14.79;100.00
54936;BME280;40838;50.676;7.838;2022-10-30T03:46:59;98580.75;;;14.60;100.00
54936;BME280;40838;50.676;7.838;2022-10-30T03:49:30;98576.41;;;14.49;100.00
54936;BME280;40838;50.676;7.838;2022-10-30T03:51:59;98591.59;;;14.16;100.00
54936;BME280;40838;50.676;7.838;2022-10-30T03:54:26;98589.72;;;14.17;100.00
54936;BME280;40838;50.676;7.838;2022-10-30T03:56:53;98586.88;;;14.28;100.00
54936;BME280;40838;50.676;7.838;2022-10-30T03:59:21;98593.25;;;14.27;100.00
54936;BME280;40838;50.676;7.838;2022-10-30T04:02:05;98595.22;;;14.05;100.00
54936;BME280;40838;50.676;7.838;2022-10-30T04:04:33;98589.09;;;14.04;100.00
54936;BME280;40838;50.676;7.838;2022-10-30T04:07:00;98588.56;;;14.02;100.00
54936;BME280;40838;50.676;7.838;2022-10-30T04:09:27;98594.16;;;14.06;100.00
54936;BME280;40838;50.676;7.838;2022-10-30T04:11:54;98588.19;;;14.26;100.00
54936;BME280;40838;50.676;7.838;2022-10-30T04:14:21;98589.59;;;14.34;100.00
54936;BME280;40838;50.676;7.838;2022-10-30T04:16:47;98584.44;;;14.54;100.00
54936;BME280;40838;50.676;7.838;2022-10-30T04:19:16;98592.56;;;14.47;100.00
54936;BME280;40838;50.676;7.838;2022-10-30T04:21:44;98595.97;;;14.38;100.00
54936;BME280;40838;50.676;7.838;2022-10-30T04:24:13;98587.44;;;14.36;100.00
54936;BME280;40838;50.676;7.838;2022-10-30T04:26:44;98587.81;;;14.07;100.00
54936;BME280;40838;50.676;7.838;2022-10-30T04:29:11;98596.41;;;13.87;100.00
54936;BME280;40838;50.676;7.838;2022-10-30T04:31:38;98589.09;;;13.72;100.00
54936;BME280;40838;50.676;7.838;2022-10-30T04:34:05;98586.63;;;13.66;100.00
54936;BME280;40838;50.676;7.838;2022-10-30T04:36:34;98582.44;;;13.70;100.00
54936;BME280;40838;50.676;7.838;2022-10-30T04:39:01;98594.53;;;13.88;100.00
54936;BME280;40838;50.676;7.838;2022-10-30T04:41:28;98587.03;;;13.79;100.00
54936;BME280;40838;50.676;7.838;2022-10-30T04:44:06;98583.34;;;13.53;100.00
54936;BME280;40838;50.676;7.838;2022-10-30T04:46:33;98593.44;;;13.56;100.00
54936;BME280;40838;50.676;7.838;2022-10-30T04:49:08;98586.34;;;13.35;100.00
54936;BME280;40838;50.676;7.838;2022-10-30T04:51:36;98590.91;;;13.18;100.00
54936;BME280;40838;50.676;7.838;2022-10-30T04:54:05;98585.56;;;13.34;100.00
54936;BME280;40838;50.676;7.838;2022-10-30T04:56:32;98587.53;;;13.22;100.00
54936;BME280;40838;50.676;7.838;2022-10-30T04:59:00;98590.97;;;13.01;100.00
54936;BME280;40838;50.676;7.838;2022-10-30T05:01:26;98596.66;;;12.87;100.00
54936;BME280;40838;50.676;7.838;2022-10-30T05:03:54;98589.84;;;12.53;100.00
54936;BME280;40838;50.676;7.838;2022-10-30T05:06:26;98588.91;;;12.25;100.00
54936;BME280;40838;50.676;7.838;2022-10-30T05:08:57;98585.41;;;12.02;100.00
54936;BME280;40838;50.676;7.838;2022-10-30T05:11:33;98596.63;;;11.81;100.00
54936;BME280;40838;50.676;7.838;2022-10-30T05:14:08;98595.69;;;11.70;100.00
54936;BME280;40838;50.676;7.838;2022-10-30T05:16:36;98597.34;;;11.60;100.00
54936;BME280;40838;50.676;7.838;2022-10-30T05:19:04;98597.81;;;11.56;100.00
54936;BME280;40838;50.676;7.838;2022-10-30T05:21:32;98602.81;;;11.41;100.00
54936;BME280;40838;50.676;7.838;2022-10-30T05:24:01;98598.09;;;11.43;100.00
54936;BME280;40838;50.676;7.838;2022-10-30T05:26:36;98595.91;;;11.40;100.00
54936;BME280;40838;50.676;7.838;2022-10-30T05:29:05;98593.78;;;11.25;100.00
54936;BME280;40838;50.676;7.838;2022-10-30T05:31:31;98588.09;;;11.17;100.00
54936;BME280;40838;50.676;7.838;2022-10-30T05:34:37;98582.38;;;11.37;100.00
54936;BME280;40838;50.676;7.838;2022-10-30T05:37:04;98586.41;;;11.85;100.00
54936;BME280;40838;50.676;7.838;2022-10-30T05:39:32;98575.94;;;12.23;100.00
54936;BME280;40838;50.676;7.838;2022-10-30T05:41:59;98576.53;;;12.31;100.00
54936;BME280;40838;50.676;7.838;2022-10-30T05:44:40;98563.63;;;12.34;100.00
54936;BME280;40838;50.676;7.838;2022-10-30T05:47:07;98571.81;;;12.33;100.00
54936;BME280;40838;50.676;7.838;2022-10-30T05:49:39;98564.19;;;12.36;100.00
54936;BME280;40838;50.676;7.838;2022-10-30T05:52:11;98563.69;;;12.39;100.00
54936;BME280;40838;50.676;7.838;2022-10-30T05:54:39;98565.75;;;12.54;100.00
54936;BME280;40838;50.676;7.838;2022-10-30T05:57:15;98573.09;;;12.47;100.00
54936;BME280;40838;50.676;7.838;2022-10-30T05:59:53;98572.50;;;12.45;100.00
54936;BME280;40838;50.676;7.838;2022-10-30T06:02:20;98580.44;;;12.45;100.00
54936;BME280;40838;50.676;7.838;2022-10-30T06:04:47;98570.75;;;12.51;100.00
54936;BME280;40838;50.676;7.838;2022-10-30T06:07:16;98565.13;;;12.47;100.00
54936;BME280;40838;50.676;7.838;2022-10-30T06:09:44;98579.44;;;12.68;100.00
54936;BME280;40838;50.676;7.838;2022-10-30T06:12:22;98580.25;;;12.68;100.00
54936;BME280;40838;50.676;7.838;2022-10-30T06:15:02;98577.34;;;12.70;100.00
54936;BME280;40838;50.676;7.838;2022-10-30T06:17:30;98572.09;;;12.75;100.00
54936;BME280;40838;50.676;7.838;2022-10-30T06:20:12;98582.78;;;13.02;100.00
54936;BME280;40838;50.676;7.838;2022-10-30T06:23:01;98581.25;;;12.84;100.00
54936;BME280;40838;50.676;7.838;2022-10-30T06:25:41;98586.41;;;12.74;100.00
54936;BME280;40838;50.676;7.838;2022-10-30T06:28:33;98579.38;;;12.63;100.00
54936;BME280;40838;50.676;7.838;2022-10-30T06:31:00;98586.44;;;12.57;100.00
54936;BME280;40838;50.676;7.838;2022-10-30T06:33:31;98585.63;;;12.57;100.00
54936;BME280;40838;50.676;7.838;2022-10-30T06:35:59;98572.38;;;12.74;100.00
54936;BME280;40838;50.676;7.838;2022-10-30T06:38:26;98574.72;;;12.70;100.00
54936;BME280;40838;50.676;7.838;2022-10-30T06:40:55;98566.94;;;12.63;100.00
54936;BME280;40838;50.676;7.838;2022-10-30T06:43:30;98571.63;;;12.56;100.00
54936;BME280;40838;50.676;7.838;2022-10-30T06:46:02;98566.00;;;12.53;100.00
54936;BME280;40838;50.676;7.838;2022-10-30T06:48:30;98558.41;;;12.78;100.00
54936;BME280;40838;50.676;7.838;2022-10-30T06:50:59;98563.00;;;13.10;100.00
54936;BME280;40838;50.676;7.838;2022-10-30T06:53:30;98556.91;;;13.09;100.00
54936;BME280;40838;50.676;7.838;2022-10-30T06:56:18;98558.81;;;13.14;100.00
54936;BME280;40838;50.676;7.838;2022-10-30T06:59:00;98558.50;;;13.10;100.00
54936;BME280;40838;50.676;7.838;2022-10-30T07:01:53;98555.09;;;13.15;100.00
54936;BME280;40838;50.676;7.838;2022-10-30T07:04:24;98560.59;;;13.30;100.00
54936;BME280;40838;50.676;7.838;2022-10-30T07:06:50;98569.34;;;13.58;100.00
54936;BME280;40838;50.676;7.838;2022-10-30T07:09:19;98560.38;;;13.64;100.00
54936;BME280;40838;50.676;7.838;2022-10-30T07:11:50;98557.66;;;14.23;100.00
54936;BME280;40838;50.676;7.838;2022-10-30T07:14:32;98569.09;;;13.92;100.00
54936;BME280;40838;50.676;7.838;2022-10-30T07:17:28;98567.97;;;13.82;100.00
54936;BME280;40838;50.676;7.838;2022-10-30T07:20:00;98571.38;;;13.78;100.00
54936;BME280;40838;50.676;7.838;2022-10-30T07:22:33;98573.00;;;13.52;100.00
54936;BME280;40838;50.676;7.838;2022-10-30T07:25:07;98580.19;;;13.56;100.00
54936;BME280;40838;50.676;7.838;2022-10-30T07:27:52;98575.66;;;14.16;100.00
54936;BME280;40838;50.676;7.838;2022-10-30T07:30:53;98566.69;;;15.58;100.00
54936;BME280;40838;50.676;7.838;2022-10-30T07:33:46;98561.88;;;16.42;100.00
54936;BME280;40838;50.676;7.838;2022-10-30T07:36:33;98563.00;;;16.21;100.00
54936;BME280;40838;50.676;7.838;2022-10-30T07:39:27;98570.72;;;16.22;100.00
54936;BME280;40838;50.676;7.838;2022-10-30T07:42:16;98567.38;;;17.41;100.00
54936;BME280;40838;50.676;7.838;2022-10-30T07:45:07;98568.84;;;17.58;100.00
54936;BME280;40838;50.676;7.838;2022-10-30T07:47:39;98575.81;;;17.04;100.00
54936;BME280;40838;50.676;7.838;2022-10-30T07:50:15;98568.56;;;17.64;100.00
54936;BME280;40838;50.676;7.838;2022-10-30T07:52:43;98576.81;;;17.63;100.00
54936;BME280;40838;50.676;7.838;2022-10-30T07:55:10;98573.38;;;18.55;100.00
54936;BME280;40838;50.676;7.838;2022-10-30T07:57:42;98579.13;;;18.43;100.00
54936;BME280;40838;50.676;7.838;2022-10-30T08:00:22;98579.16;;;18.09;100.00
54936;BME280;40838;50.676;7.838;2022-10-30T08:02:59;98574.78;;;19.57;100.00
54936;BME280;40838;50.676;7.838;2022-10-30T08:05:49;98588.66;;;18.78;100.00
54936;BME280;40838;50.676;7.838;2022-10-30T08:08:29;98594.28;;;18.72;100.00
54936;BME280;40838;50.676;7.838;2022-10-30T08:11:07;98585.59;;;19.09;100.00
54936;BME280;40838;50.676;7.838;2022-10-30T08:13:34;98586.03;;;18.73;100.00
54936;BME280;40838;50.676;7.838;2022-10-30T08:16:03;98582.31;;;18.93;100.00
54936;BME280;40838;50.676;7.838;2022-10-30T08:18:32;98578.38;;;19.10;100.00
54936;BME280;40838;50.676;7.838;2022-10-30T08:20:58;98577.84;;;19.69;100.00
54936;BME280;40838;50.676;7.838;2022-10-30T08:23:25;98585.38;;;19.24;100.00
54936;BME280;40838;50.676;7.838;2022-10-30T08:25:56;98578.69;;;19.84;100.00
54936;BME280;40838;50.676;7.838;2022-10-30T08:28:26;98579.53;;;19.98;100.00
54936;BME280;40838;50.676;7.838;2022-10-30T08:30:54;98592.50;;;20.37;100.00
54936;BME280;40838;50.676;7.838;2022-10-30T08:33:38;98590.63;;;20.52;100.00
54936;BME280;40838;50.676;7.838;2022-10-30T08:36:31;98587.19;;;19.86;100.00
54936;BME280;40838;50.676;7.838;2022-10-30T08:38:58;98582.31;;;21.09;100.00
54936;BME280;40838;50.676;7.838;2022-10-30T08:41:47;98584.31;;;20.61;100.00
54936;BME280;40838;50.676;7.838;2022-10-30T08:44:13;98582.63;;;20.05;100.00
54936;BME280;40838;50.676;7.838;2022-10-30T08:47:07;98582.13;;;20.91;100.00
54936;BME280;40838;50.676;7.838;2022-10-30T08:49:36;98587.44;;;20.22;100.00
54936;BME280;40838;50.676;7.838;2022-10-30T08:52:06;98586.31;;;20.83;100.00
54936;BME280;40838;50.676;7.838;2022-10-30T08:54:33;98581.09;;;20.32;100.00
54936;BME280;40838;50.676;7.838;2022-10-30T08:57:02;98582.09;;;21.19;100.00
54936;BME280;40838;50.676;7.838;2022-10-30T08:59:30;98583.16;;;19.88;100.00
54936;BME280;40838;50.676;7.838;2022-10-30T09:01:58;98574.63;;;20.19;100.00
54936;BME280;40838;50.676;7.838;2022-10-30T09:04:45;98579.47;;;19.46;100.00
54936;BME280;40838;50.676;7.838;2022-10-30T09:07:45;98582.22;;;19.98;100.00
54936;BME280;40838;50.676;7.838;2022-10-30T09:10:31;98580.19;;;19.90;100.00
54936;BME280;40838;50.676;7.838;2022-10-30T09:12:59;98580.56;;;20.16;100.00
54936;BME280;40838;50.676;7.838;2022-10-30T09:15:27;98573.09;;;20.87;100.00
54936;BME280;40838;50.676;7.838;2022-10-30T09:17:55;98571.91;;;20.93;100.00
54936;BME280;40838;50.676;7.838;2022-10-30T09:20:24;98570.28;;;21.79;100.00
54936;BME280;40838;50.676;7.838;2022-10-30T09:22:53;98563.88;;;22.11;100.00
54936;BME280;40838;50.676;7.838;2022-10-30T09:25:23;98565.13;;;21.60;100.00
54936;BME280;40838;50.676;7.838;2022-10-30T09:28:25;98558.72;;;21.33;100.00
54936;BME280;40838;50.676;7.838;2022-10-30T09:31:18;98556.94;;;21.42;100.00
54936;BME280;40838;50.676;7.838;2022-10-30T09:33:45;98561.50;;;21.87;100.00
54936;BME280;40838;50.676;7.838;2022-10-30T09:36:32;98563.03;;;21.57;100.00
54936;BME280;40838;50.676;7.838;2022-10-30T09:38:59;98565.94;;;21.46;100.00
54936;BME280;40838;50.676;7.838;2022-10-30T09:45:01;98557.03;;;22.27;100.00
54936;BME280;40838;50.676;7.838;2022-10-30T09:47:40;98555.03;;;22.41;100.00
54936;BME280;40838;50.676;7.838;2022-10-30T09:50:19;98558.50;;;21.43;100.00
54936;BME280;40838;50.676;7.838;2022-10-30T09:53:02;98558.53;;;21.29;100.00
54936;BME280;40838;50.676;7.838;2022-10-30T09:55:38;98563.28;;;21.91;100.00
54936;BME280;40838;50.676;7.838;2022-10-30T09:58:20;98563.25;;;22.14;100.00
54936;BME280;40838;50.676;7.838;2022-10-30T10:00:55;98570.19;;;21.84;100.00
54936;BME280;40838;50.676;7.838;2022-10-30T10:03:46;98564.38;;;21.32;100.00
54936;BME280;40838;50.676;7.838;2022-10-30T10:06:43;98575.38;;;20.94;100.00
54936;BME280;40838;50.676;7.838;2022-10-30T10:09:23;98575.69;;;21.06;100.00
54936;BME280;40838;50.676;7.838;2022-10-30T10:12:14;98563.53;;;21.81;100.00
54936;BME280;40838;50.676;7.838;2022-10-30T10:14:47;98568.94;;;22.12;100.00
54936;BME280;40838;50.676;7.838;2022-10-30T10:17:22;98573.88;;;21.96;100.00
54936;BME280;40838;50.676;7.838;2022-10-30T10:19:56;98569.50;;;22.63;100.00
54936;BME280;40838;50.676;7.838;2022-10-30T10:22:26;98563.28;;;22.45;100.00
54936;BME280;40838;50.676;7.838;2022-10-30T10:24:57;98558.69;;;22.46;100.00
54936;BME280;40838;50.676;7.838;2022-10-30T10:27:37;98564.59;;;22.25;100.00
54936;BME280;40838;50.676;7.838;2022-10-30T10:30:10;98558.63;;;22.06;100.00
54936;BME280;40838;50.676;7.838;2022-10-30T10:32:51;98560.97;;;22.21;100.00
54936;BME280;40838;50.676;7.838;2022-10-30T10:35:57;98567.94;;;22.00;100.00
54936;BME280;40838;50.676;7.838;2022-10-30T10:38:38;98561.56;;;22.98;100.00
54936;BME280;40838;50.676;7.838;2022-10-30T10:41:23;98556.69;;;23.00;98.52
54936;BME280;40838;50.676;7.838;2022-10-30T10:44:14;98554.28;;;22.98;99.11
54936;BME280;40838;50.676;7.838;2022-10-30T10:47:02;98546.25;;;23.24;97.14
54936;BME280;40838;50.676;7.838;2022-10-30T10:49:41;98546.06;;;23.03;97.12
54936;BME280;40838;50.676;7.838;2022-10-30T10:52:19;98552.50;;;22.85;98.34
54936;BME280;40838;50.676;7.838;2022-10-30T10:54:51;98543.19;;;22.42;99.72
54936;BME280;40838;50.676;7.838;2022-10-30T10:57:29;98547.25;;;22.80;99.23
54936;BME280;40838;50.676;7.838;2022-10-30T11:00:02;98546.00;;;22.86;99.58
54936;BME280;40838;50.676;7.838;2022-10-30T11:02:34;98541.34;;;23.09;97.35
54936;BME280;40838;50.676;7.838;2022-10-30T11:05:07;98534.41;;;22.68;99.71
54936;BME280;40838;50.676;7.838;2022-10-30T11:07:44;98526.94;;;22.96;97.06
54936;BME280;40838;50.676;7.838;2022-10-30T11:10:14;98528.91;;;22.82;94.03
54936;BME280;40838;50.676;7.838;2022-10-30T11:12:42;98530.34;;;22.39;98.42
54936;BME280;40838;50.676;7.838;2022-10-30T11:15:20;98534.22;;;22.56;96.73
54936;BME280;40838;50.676;7.838;2022-10-30T11:17:54;98531.44;;;22.78;94.40
54936;BME280;40838;50.676;7.838;2022-10-30T11:20:30;98530.97;;;22.76;94.95
54936;BME280;40838;50.676;7.838;2022-10-30T11:23:00;98529.84;;;22.77;95.50
54936;BME280;40838;50.676;7.838;2022-10-30T11:25:33;98514.69;;;22.90;91.76
54936;BME280;40838;50.676;7.838;2022-10-30T11:28:02;98522.09;;;22.67;91.55
54936;BME280;40838;50.676;7.838;2022-10-30T11:30:30;98523.66;;;22.68;91.00
54936;BME280;40838;50.676;7.838;2022-10-30T11:33:01;98532.28;;;22.16;94.14
54936;BME280;40838;50.676;7.838;2022-10-30T11:35:46;98528.09;;;22.24;90.23
54936;BME280;40838;50.676;7.838;2022-10-30T11:38:18;98526.72;;;22.35;90.07
54936;BME280;40838;50.676;7.838;2022-10-30T11:40:46;98529.13;;;22.14;93.59
54936;BME280;40838;50.676;7.838;2022-10-30T11:43:19;98521.78;;;22.29;89.96
54936;BME280;40838;50.676;7.838;2022-10-30T11:45:50;98522.00;;;21.87;91.80
54936;BME280;40838;50.676;7.838;2022-10-30T11:48:21;98533.69;;;21.83;93.64
54936;BME280;40838;50.676;7.838;2022-10-30T11:50:58;98538.84;;;22.02;93.74
54936;BME280;40838;50.676;7.838;2022-10-30T11:56:15;98528.44;;;22.31;91.43
54936;BME280;40838;50.676;7.838;2022-10-30T11:58:49;98518.34;;;22.37;89.13
54936;BME280;40838;50.676;7.838;2022-10-30T12:01:28;98522.09;;;22.27;90.59
54936;BME280;40838;50.676;7.838;2022-10-30T12:04:12;98526.53;;;22.23;90.82
54936;BME280;40838;50.676;7.838;2022-10-30T12:06:43;98518.06;;;22.16;87.68
54936;BME280;40838;50.676;7.838;2022-10-30T12:09:12;98525.50;;;21.88;84.43
54936;BME280;40838;50.676;7.838;2022-10-30T12:11:40;98520.50;;;21.72;86.11
54936;BME280;40838;50.676;7.838;2022-10-30T12:14:19;98515.97;;;21.82;85.56
54936;BME280;40838;50.676;7.838;2022-10-30T12:16:48;98526.03;;;21.99;91.00
54936;BME280;40838;50.676;7.838;2022-10-30T12:19:17;98520.56;;;21.81;89.25
54936;BME280;40838;50.676;7.838;2022-10-30T12:21:47;98518.72;;;21.90;87.98
54936;BME280;40838;50.676;7.838;2022-10-30T12:24:18;98507.75;;;21.56;88.91
54936;BME280;40838;50.676;7.838;2022-10-30T12:26:48;98518.00;;;21.54;92.54
54936;BME280;40838;50.676;7.838;2022-10-30T12:29:19;98508.06;;;21.54;90.51
54936;BME280;40838;50.676;7.838;2022-10-30T12:31:52;98509.97;;;21.54;91.43
54936;BME280;40838;50.676;7.838;2022-10-30T12:34:34;98507.56;;;21.52;92.00
54936;BME280;40838;50.676;7.838;2022-10-30T12:37:09;98500.41;;;21.25;93.16
54936;BME280;40838;50.676;7.838;2022-10-30T12:39:50;98502.03;;;21.48;93.88
54936;BME280;40838;50.676;7.838;2022-10-30T12:42:19;98504.09;;;21.51;96.07
54936;BME280;40838;50.676;7.838;2022-10-30T12:44:53;98501.78;;;21.59;94.47
54936;BME280;40838;50.676;7.838;2022-10-30T12:47:26;98502.69;;;21.54;98.13
54936;BME280;40838;50.676;7.838;2022-10-30T12:49:57;98498.22;;;21.49;96.28
54936;BME280;40838;50.676;7.838;2022-10-30T12:52:33;98495.72;;;21.31;94.28
54936;BME280;40838;50.676;7.838;2022-10-30T12:55:03;98503.88;;;21.62;92.45
54936;BME280;40838;50.676;7.838;2022-10-30T12:57:34;98496.25;;;21.86;94.09
54936;BME280;40838;50.676;7.838;2022-10-30T13:00:10;98496.22;;;21.55;93.55
54936;BME280;40838;50.676;7.838;2022-10-30T13:02:45;98495.66;;;21.67;93.82
54936;BME280;40838;50.676;7.838;2022-10-30T13:05:24;98498.94;;;21.86;93.88
54936;BME280;40838;50.676;7.838;2022-10-30T13:08:04;98494.75;;;21.49;96.09
54936;BME280;40838;50.676;7.838;2022-10-30T13:10:40;98500.19;;;21.58;97.41
54936;BME280;40838;50.676;7.838;2022-10-30T13:13:12;98500.34;;;21.84;95.08
54936;BME280;40838;50.676;7.838;2022-10-30T13:15:44;98502.56;;;21.23;95.45
54936;BME280;40838;50.676;7.838;2022-10-30T13:18:17;98501.03;;;21.67;93.92
54936;BME280;40838;50.676;7.838;2022-10-30T13:21:04;98496.34;;;21.72;97.05
54936;BME280;40838;50.676;7.838;2022-10-30T13:23:39;98493.56;;;21.86;97.09
54936;BME280;40838;50.676;7.838;2022-10-30T13:26:15;98495.69;;;21.98;95.14
54936;BME280;40838;50.676;7.838;2022-10-30T13:28:50;98490.97;;;21.72;96.41
54936;BME280;40838;50.676;7.838;2022-10-30T13:31:30;98506.88;;;21.91;96.34